createdAt,value
2018-09-24T00:00:32.808Z,99153.43
2018-09-24T00:03:00.473Z,99156.22
2018-09-24T00:05:28.193Z,99155.59
2018-09-24T00:07:55.909Z,99160.85
2018-09-24T00:10:23.636Z,99154.62
2018-09-24T00:12:51.316Z,99166.64
2018-09-24T00:15:19.015Z,99171.14
2018-09-24T00:17:46.672Z,99171.75
2018-09-24T00:20:14.319Z,99170.45
2018-09-24T00:22:41.996Z,99183.71
2018-09-24T00:25:09.672Z,99177.70
2018-09-24T00:27:37.356Z,99177.85
2018-09-24T00:30:05.050Z,99183.56
2018-09-24T00:32:32.816Z,99186.21
2018-09-24T00:35:00.471Z,99188.84
2018-09-24T00:37:28.144Z,99188.05
2018-09-24T00:39:55.831Z,99184.50
2018-09-24T00:42:23.489Z,99194.77
2018-09-24T00:44:51.255Z,99194.70
2018-09-24T00:47:18.940Z,99190.58
2018-09-24T00:49:46.608Z,99194.46
2018-09-24T00:52:14.304Z,99192.84
2018-09-24T00:54:42.017Z,99196.62
2018-09-24T00:57:09.675Z,99197.23
2018-09-24T00:59:37.424Z,99193.69
2018-09-24T01:02:05.091Z,99201.09
2018-09-24T01:04:32.768Z,99208.35
2018-09-24T01:07:00.464Z,99217.55
2018-09-24T01:09:28.126Z,99218.41
2018-09-24T01:11:55.799Z,99213.20
2018-09-24T01:14:23.503Z,99224.72
2018-09-24T01:16:51.159Z,99231.53
2018-09-24T01:19:18.828Z,99234.00
2018-09-24T01:21:46.535Z,99246.16
2018-09-24T01:24:14.224Z,99241.20
2018-09-24T01:26:41.920Z,99256.97
2018-09-24T01:29:09.895Z,99256.63
2018-09-24T01:31:37.668Z,99244.20
2018-09-24T01:34:05.367Z,99253.84
2018-09-24T01:36:33.043Z,99261.87
2018-09-24T01:39:00.735Z,99265.27
2018-09-24T01:41:28.404Z,99256.47
2018-09-24T01:43:56.085Z,99250.88
2018-09-24T01:46:23.736Z,99259.31
2018-09-24T01:48:51.499Z,99269.70
2018-09-24T01:51:19.197Z,99271.77
2018-09-24T01:53:46.860Z,99271.72
2018-09-24T01:56:14.551Z,99290.34
2018-09-24T01:58:42.237Z,99283.63
2018-09-24T02:01:09.971Z,99286.09
2018-09-24T02:03:37.639Z,99292.21
2018-09-24T02:06:05.960Z,99302.34
2018-09-24T02:08:41.500Z,99301.44
2018-09-24T02:11:09.176Z,99306.20
2018-09-24T02:13:38.476Z,99295.36
2018-09-24T02:16:06.163Z,99309.20
2018-09-24T02:18:33.847Z,99307.42
2018-09-24T02:21:01.543Z,99315.77
2018-09-24T02:23:29.289Z,99304.70
2018-09-24T02:25:56.991Z,99330.36
2018-09-24T02:28:28.374Z,99322.78
2018-09-24T02:30:56.103Z,99314.30
2018-09-24T02:33:23.771Z,99316.16
2018-09-24T02:35:51.425Z,99310.97
2018-09-24T02:38:19.644Z,99320.56
2018-09-24T02:40:47.332Z,99323.73
2018-09-24T02:43:22.143Z,99328.19
2018-09-24T02:45:50.056Z,99334.34
2018-09-24T02:48:17.795Z,99326.73
2018-09-24T02:50:45.474Z,99332.53
2018-09-24T02:53:13.123Z,99335.66
2018-09-24T02:55:40.840Z,99342.22
2018-09-24T02:58:13.772Z,99344.60
2018-09-24T03:00:41.478Z,99344.84
2018-09-24T03:03:09.847Z,99345.52
2018-09-24T03:05:37.571Z,99352.73
2018-09-24T03:08:09.496Z,99349.30
2018-09-24T03:10:37.523Z,99369.16
2018-09-24T03:13:05.396Z,99367.94
2018-09-24T03:15:38.247Z,99381.08
2018-09-24T03:18:06.784Z,99376.74
2018-09-24T03:20:36.108Z,99371.34
2018-09-24T03:23:04.140Z,99381.08
2018-09-24T03:25:31.804Z,99375.88
2018-09-24T03:28:00.317Z,99387.55
2018-09-24T03:30:33.695Z,99387.09
2018-09-24T03:33:01.589Z,99385.47
2018-09-24T03:35:29.346Z,99391.23
2018-09-24T03:37:57.139Z,99382.98
2018-09-24T03:40:24.860Z,99398.90
2018-09-24T03:42:52.579Z,99389.11
2018-09-24T03:45:20.528Z,99395.72
2018-09-24T03:47:48.321Z,99400.62
2018-09-24T03:50:15.991Z,99398.45
2018-09-24T03:52:44.120Z,99404.24
2018-09-24T03:55:11.848Z,99407.62
2018-09-24T03:57:39.663Z,99414.61
2018-09-24T04:00:07.628Z,99421.66
2018-09-24T04:02:35.368Z,99426.56
2018-09-24T04:05:08.682Z,99428.48
2018-09-24T04:07:42.154Z,99425.88
2018-09-24T04:10:15.673Z,99438.38
2018-09-24T04:12:48.797Z,99432.67
2018-09-24T04:15:22.157Z,99441.52
2018-09-24T04:17:55.311Z,99444.59
2018-09-24T04:20:28.623Z,99454.92
2018-09-24T04:23:01.995Z,99452.63
2018-09-24T04:25:35.231Z,99461.09
2018-09-24T04:28:08.533Z,99469.78
2018-09-24T04:30:41.746Z,99475.80
2018-09-24T04:33:14.963Z,99475.22
2018-09-24T04:35:48.225Z,99484.41
2018-09-24T04:38:21.556Z,99490.09
2018-09-24T04:40:54.940Z,99497.61
2018-09-24T04:43:28.196Z,99491.37
2018-09-24T04:46:01.413Z,99497.39
2018-09-24T04:48:34.701Z,99493.86
2018-09-24T04:51:07.940Z,99487.88
2018-09-24T04:53:41.192Z,99500.88
2018-09-24T04:56:14.482Z,99502.91
2018-09-24T04:58:47.802Z,99515.13
2018-09-24T05:01:21.064Z,99518.06
2018-09-24T05:03:54.453Z,99520.14
2018-09-24T05:06:27.636Z,99519.92
2018-09-24T05:09:00.853Z,99521.73
2018-09-24T05:11:34.064Z,99518.62
2018-09-24T05:14:07.354Z,99529.05
2018-09-24T05:16:40.457Z,99527.91
2018-09-24T05:19:13.699Z,99524.62
2018-09-24T05:21:46.902Z,99533.84
2018-09-24T05:24:20.216Z,99528.73
2018-09-24T05:26:53.489Z,99534.55
2018-09-24T05:29:26.683Z,99533.95
2018-09-24T05:32:00.049Z,99545.63
2018-09-24T05:34:33.442Z,99543.63
2018-09-24T05:37:06.636Z,99537.30
2018-09-24T05:39:39.827Z,99545.59
2018-09-24T05:42:13.065Z,99545.39
2018-09-24T05:44:46.376Z,99557.84
2018-09-24T05:47:19.673Z,99566.53
2018-09-24T05:49:52.840Z,99564.67
2018-09-24T05:52:26.133Z,99577.38
2018-09-24T05:54:59.464Z,99579.74
2018-09-24T05:57:32.716Z,99585.56
2018-09-24T06:00:05.895Z,99592.11
2018-09-24T06:02:38.959Z,99596.28
2018-09-24T06:05:12.158Z,99596.13
2018-09-24T06:07:45.452Z,99601.73
2018-09-24T06:10:18.747Z,99603.96
2018-09-24T06:12:52.119Z,99605.21
2018-09-24T06:15:25.320Z,99605.14
2018-09-24T06:17:58.596Z,99608.66
2018-09-24T06:20:31.851Z,99608.34
2018-09-24T06:23:05.088Z,99608.73
2018-09-24T06:25:38.437Z,99615.00
2018-09-24T06:28:11.760Z,99612.05
2018-09-24T06:30:45.093Z,99623.12
2018-09-24T06:33:18.329Z,99614.73
2018-09-24T06:35:51.653Z,99621.09
2018-09-24T06:38:24.935Z,99627.06
2018-09-24T06:40:58.181Z,99630.69
2018-09-24T06:43:31.480Z,99635.57
2018-09-24T06:46:04.762Z,99638.20
2018-09-24T06:48:38.167Z,99636.89
2018-09-24T06:51:11.456Z,99653.62
2018-09-24T06:53:44.961Z,99657.36
2018-09-24T06:56:18.365Z,99658.81
2018-09-24T06:58:51.699Z,99672.79
2018-09-24T07:01:25.069Z,99672.45
2018-09-24T07:03:58.433Z,99690.00
2018-09-24T07:06:31.803Z,99686.17
2018-09-24T07:09:05.144Z,99691.22
2018-09-24T07:11:38.466Z,99697.95
2018-09-24T07:14:11.881Z,99700.48
2018-09-24T07:16:45.303Z,99710.94
2018-09-24T07:19:18.871Z,99714.00
2018-09-24T07:21:52.223Z,99716.74
2018-09-24T07:24:25.678Z,99723.24
2018-09-24T07:26:59.087Z,99725.45
2018-09-24T07:29:32.551Z,99731.55
2018-09-24T07:32:05.895Z,99727.53
2018-09-24T07:34:39.290Z,99741.92
2018-09-24T07:37:12.645Z,99751.78
2018-09-24T07:39:46.053Z,99740.63
2018-09-24T07:42:19.506Z,99756.20
2018-09-24T07:44:52.982Z,99746.59
2018-09-24T07:47:26.349Z,99748.75
2018-09-24T07:49:59.848Z,99754.22
2018-09-24T07:52:33.234Z,99766.36
2018-09-24T07:55:06.742Z,99769.52
2018-09-24T07:57:40.049Z,99767.11
2018-09-24T08:00:13.682Z,99765.39
2018-09-24T08:02:47.087Z,99770.16
2018-09-24T08:05:20.445Z,99772.29
2018-09-24T08:07:53.865Z,99786.64
2018-09-24T08:10:27.373Z,99771.02
2018-09-24T08:13:00.845Z,99775.06
2018-09-24T08:15:34.302Z,99773.31
2018-09-24T08:18:07.753Z,99768.62
2018-09-24T08:20:41.201Z,99764.92
2018-09-24T08:23:14.598Z,99776.30
2018-09-24T08:25:48.196Z,99782.23
2018-09-24T08:28:21.631Z,99789.89
2018-09-24T08:30:55.007Z,99783.27
2018-09-24T08:33:28.418Z,99793.59
2018-09-24T08:36:01.974Z,99790.37
2018-09-24T08:38:35.356Z,99786.77
2018-09-24T08:41:08.722Z,99815.70
2018-09-24T08:43:42.276Z,99812.52
2018-09-24T08:46:15.634Z,99828.16
2018-09-24T08:48:56.263Z,99826.88
2018-09-24T08:51:29.922Z,99831.16
2018-09-24T08:54:03.273Z,99829.25
2018-09-24T08:56:36.870Z,99825.87
2018-09-24T08:59:10.264Z,99836.92
2018-09-24T09:01:43.894Z,99833.02
2018-09-24T09:04:17.358Z,99826.35
2018-09-24T09:06:50.914Z,99843.00
2018-09-24T09:09:24.318Z,99849.67
2018-09-24T09:11:57.770Z,99838.59
2018-09-24T09:14:31.406Z,99847.17
2018-09-24T09:17:04.761Z,99856.38
2018-09-24T09:19:38.481Z,99847.41
2018-09-24T09:22:11.871Z,99848.86
2018-09-24T09:24:45.379Z,99848.54
2018-09-24T09:27:19.065Z,99863.56
2018-09-24T09:29:52.570Z,99866.45
2018-09-24T09:32:26.130Z,99872.63
2018-09-24T09:34:59.786Z,99879.91
2018-09-24T09:37:33.164Z,99878.62
2018-09-24T09:40:06.681Z,99876.70
2018-09-24T09:42:40.017Z,99893.87
2018-09-24T09:45:13.106Z,99902.30
2018-09-24T09:47:46.674Z,99900.86
2018-09-24T09:50:20.285Z,99901.25
2018-09-24T09:52:53.845Z,99902.64
2018-09-24T09:55:27.205Z,99904.55
2018-09-24T09:58:00.690Z,99915.44
2018-09-24T10:00:34.194Z,99899.32
2018-09-24T10:03:07.597Z,99916.17
2018-09-24T10:05:40.965Z,99934.20
2018-09-24T10:08:14.374Z,99922.73
2018-09-24T10:10:47.863Z,99932.27
2018-09-24T10:13:21.438Z,99923.72
2018-09-24T10:15:54.890Z,99930.27
2018-09-24T10:18:28.284Z,99943.16
2018-09-24T10:21:01.909Z,99940.11
2018-09-24T10:23:35.457Z,99933.42
2018-09-24T10:26:08.990Z,99946.27
2018-09-24T10:28:42.412Z,99948.73
2018-09-24T10:31:15.788Z,99950.90
2018-09-24T10:33:49.308Z,99952.70
2018-09-24T10:36:22.864Z,99960.12
2018-09-24T10:38:56.401Z,99968.97
2018-09-24T10:41:29.926Z,99973.10
2018-09-24T10:44:03.378Z,99985.81
2018-09-24T10:46:36.782Z,100000.10
2018-09-24T10:49:10.522Z,99994.33
2018-09-24T10:51:43.949Z,99975.73
2018-09-24T10:54:17.586Z,99993.84
2018-09-24T10:56:50.985Z,100005.60
2018-09-24T10:59:24.563Z,100022.11
2018-09-24T11:01:58.089Z,100002.41
2018-09-24T11:04:31.537Z,100017.94
2018-09-24T11:07:05.129Z,100019.46
2018-09-24T11:09:38.502Z,100030.08
2018-09-24T11:12:11.878Z,100032.27
2018-09-24T11:14:45.350Z,100027.03
2018-09-24T11:17:19.091Z,100017.83
2018-09-24T11:19:52.486Z,100035.77
2018-09-24T11:22:26.093Z,100044.59
2018-09-24T11:24:59.470Z,100042.22
2018-09-24T11:27:32.883Z,100052.25
2018-09-24T11:30:06.428Z,100062.54
2018-09-24T11:32:40.091Z,100063.06
2018-09-24T11:35:13.525Z,100064.72
2018-09-24T11:37:47.045Z,100068.92
2018-09-24T11:40:20.379Z,100076.89
2018-09-24T11:42:53.719Z,100074.89
2018-09-24T11:45:27.354Z,100065.52
2018-09-24T11:48:00.921Z,100075.17
2018-09-24T11:50:34.331Z,100076.89
2018-09-24T11:53:07.814Z,100080.87
2018-09-24T11:55:41.430Z,100086.96
2018-09-24T11:58:15.031Z,100092.46
2018-09-24T12:00:48.357Z,100094.92
2018-09-24T12:03:21.889Z,100103.06
2018-09-24T12:05:55.373Z,100100.12
2018-09-24T12:08:28.927Z,100106.84
2018-09-24T12:11:02.445Z,100106.67
2018-09-24T12:13:35.891Z,100126.87
2018-09-24T12:16:09.327Z,100113.40
2018-09-24T12:18:42.754Z,100130.31
2018-09-24T12:21:16.176Z,100131.25
2018-09-24T12:23:49.671Z,100137.21
2018-09-24T12:26:23.226Z,100148.16
2018-09-24T12:28:56.613Z,100150.80
2018-09-24T12:31:30.992Z,100156.58
2018-09-24T12:34:04.369Z,100170.19
2018-09-24T12:36:37.937Z,100168.83
2018-09-24T12:39:12.854Z,100174.89
2018-09-24T12:41:46.574Z,100171.66
2018-09-24T12:44:20.141Z,100178.07
2018-09-24T12:46:53.506Z,100180.55
2018-09-24T12:49:26.953Z,100179.50
2018-09-24T12:52:00.378Z,100181.54
2018-09-24T12:54:33.785Z,100195.95
2018-09-24T12:57:07.501Z,100195.09
2018-09-24T12:59:41.202Z,100203.37
2018-09-24T13:02:14.653Z,100216.16
2018-09-24T13:04:48.194Z,100214.42
2018-09-24T13:07:21.765Z,100222.89
2018-09-24T13:09:55.390Z,100225.59
2018-09-24T13:12:29.084Z,100225.26
2018-09-24T13:15:02.437Z,100236.55
2018-09-24T13:17:35.921Z,100229.06
2018-09-24T13:20:09.475Z,100244.23
2018-09-24T13:22:43.062Z,100242.58
2018-09-24T13:25:16.445Z,100245.95
2018-09-24T13:27:49.909Z,100241.88
2018-09-24T13:30:23.521Z,100247.17
2018-09-24T13:32:56.907Z,100240.72
2018-09-24T13:35:30.504Z,100247.50
2018-09-24T13:38:03.902Z,100270.80
2018-09-24T13:40:37.453Z,100269.64
2018-09-24T13:43:10.947Z,100273.84
2018-09-24T13:45:44.458Z,100270.44
2018-09-24T13:48:18.065Z,100265.50
2018-09-24T13:50:51.574Z,100281.48
2018-09-24T13:53:25.185Z,100285.83
2018-09-24T13:55:58.556Z,100277.22
2018-09-24T13:58:32.187Z,100283.12
2018-09-24T14:01:05.532Z,100280.73
2018-09-24T14:03:39.054Z,100303.44
2018-09-24T14:06:12.608Z,100298.37
2018-09-24T14:08:46.222Z,100298.00
2018-09-24T14:11:19.659Z,100309.82
2018-09-24T14:13:53.030Z,100313.30
2018-09-24T14:16:26.566Z,100321.80
2018-09-24T14:19:00.086Z,100323.78
2018-09-24T14:21:33.589Z,100323.88
2018-09-24T14:24:07.118Z,100333.09
2018-09-24T14:26:40.718Z,100331.56
2018-09-24T14:29:14.207Z,100319.78
2018-09-24T14:31:47.545Z,100332.78
2018-09-24T14:34:20.958Z,100346.86
2018-09-24T14:36:54.314Z,100339.55
2018-09-24T14:39:27.914Z,100356.88
2018-09-24T14:42:01.550Z,100355.81
2018-09-24T14:44:35.105Z,100364.55
2018-09-24T14:47:08.473Z,100360.08
2018-09-24T14:49:41.905Z,100367.29
2018-09-24T14:52:15.565Z,100375.91
2018-09-24T14:54:49.176Z,100376.11
2018-09-24T14:57:22.764Z,100377.69
2018-09-24T14:59:56.169Z,100388.31
2018-09-24T15:02:29.784Z,100395.66
2018-09-24T15:05:03.450Z,100401.09
2018-09-24T15:07:36.921Z,100407.25
2018-09-24T15:10:10.288Z,100388.03
2018-09-24T15:12:43.857Z,100401.38
2018-09-24T15:15:17.482Z,100400.60
2018-09-24T15:17:50.982Z,100404.44
2018-09-24T15:20:24.585Z,100411.09
2018-09-24T15:22:58.092Z,100416.19
2018-09-24T15:25:31.726Z,100417.78
2018-09-24T15:28:05.283Z,100414.45
2018-09-24T15:30:38.705Z,100415.41
2018-09-24T15:33:12.049Z,100423.05
2018-09-24T15:35:45.630Z,100427.66
2018-09-24T15:38:19.187Z,100417.45
2018-09-24T15:40:52.760Z,100426.87
2018-09-24T15:43:26.210Z,100434.66
2018-09-24T15:45:59.792Z,100438.62
2018-09-24T15:48:33.497Z,100440.20
2018-09-24T15:51:06.972Z,100448.30
2018-09-24T15:53:40.502Z,100451.73
2018-09-24T15:56:14.121Z,100447.95
2018-09-24T15:58:47.518Z,100441.48
2018-09-24T16:01:20.963Z,100459.41
2018-09-24T16:03:54.371Z,100456.98
2018-09-24T16:06:27.952Z,100468.72
2018-09-24T16:09:01.352Z,100458.22
2018-09-24T16:11:34.811Z,100464.89
2018-09-24T16:14:08.457Z,100479.75
2018-09-24T16:16:41.945Z,100475.39
2018-09-24T16:19:15.319Z,100484.52
2018-09-24T16:21:48.962Z,100486.23
2018-09-24T16:24:22.353Z,100493.44
2018-09-24T16:26:55.906Z,100495.89
2018-09-24T16:29:29.438Z,100509.59
2018-09-24T16:32:02.896Z,100502.94
2018-09-24T16:34:36.196Z,100515.17
2018-09-24T16:37:09.589Z,100524.27
2018-09-24T16:39:43.178Z,100527.16
2018-09-24T16:42:16.627Z,100537.67
2018-09-24T16:44:50.071Z,100530.62
2018-09-24T16:47:23.629Z,100550.84
2018-09-24T16:49:57.035Z,100549.73
2018-09-24T16:52:30.477Z,100553.89
2018-09-24T16:55:03.974Z,100545.47
2018-09-24T16:57:37.467Z,100551.16
2018-09-24T17:00:11.322Z,100561.78
2018-09-24T17:02:44.749Z,100555.47
2018-09-24T17:05:18.295Z,100570.45
2018-09-24T17:07:51.922Z,100574.41
2018-09-24T17:10:25.297Z,100570.66
2018-09-24T17:12:58.861Z,100576.30
2018-09-24T17:15:32.298Z,100590.66
2018-09-24T17:18:05.839Z,100589.41
2018-09-24T17:20:39.466Z,100592.72
2018-09-24T17:23:13.023Z,100598.13
2018-09-24T17:25:46.431Z,100596.30
2018-09-24T17:28:20.070Z,100615.72
2018-09-24T17:30:53.650Z,100619.55
2018-09-24T17:33:27.072Z,100621.91
2018-09-24T17:36:00.584Z,100623.18
2018-09-24T17:38:34.001Z,100629.69
2018-09-24T17:41:07.582Z,100637.14
2018-09-24T17:43:41.077Z,100635.05
2018-09-24T17:46:14.732Z,100633.34
2018-09-24T17:48:48.269Z,100635.31
2018-09-24T17:51:21.725Z,100648.27
2018-09-24T17:53:55.222Z,100662.81
2018-09-24T17:56:28.661Z,100673.12
2018-09-24T17:59:02.125Z,100672.89
2018-09-24T18:01:35.669Z,100684.52
2018-09-24T18:04:09.218Z,100683.81
2018-09-24T18:06:42.846Z,100688.83
2018-09-24T18:09:16.183Z,100701.69
2018-09-24T18:11:49.903Z,100705.28
2018-09-24T18:14:23.505Z,100705.81
2018-09-24T18:16:56.982Z,100713.45
2018-09-24T18:19:30.471Z,100716.64
2018-09-24T18:22:04.027Z,100723.73
2018-09-24T18:24:37.334Z,100725.28
2018-09-24T18:27:11.015Z,100731.48
2018-09-24T18:29:44.675Z,100734.25
2018-09-24T18:32:18.153Z,100743.22
2018-09-24T18:34:51.728Z,100747.86
2018-09-24T18:37:25.079Z,100742.78
2018-09-24T18:39:58.738Z,100748.30
2018-09-24T18:42:32.094Z,100756.70
2018-09-24T18:45:05.572Z,100760.40
2018-09-24T18:47:39.249Z,100760.89
2018-09-24T18:50:12.777Z,100763.59
2018-09-24T18:52:46.261Z,100769.41
2018-09-24T18:55:19.629Z,100774.47
2018-09-24T18:57:53.002Z,100782.03
2018-09-24T19:00:26.433Z,100787.90
2018-09-24T19:02:59.861Z,100788.77
2018-09-24T19:05:33.362Z,100792.36
2018-09-24T19:08:06.965Z,100803.63
2018-09-24T19:10:40.463Z,100802.69
2018-09-24T19:13:13.879Z,100811.54
2018-09-24T19:15:47.292Z,100814.73
2018-09-24T19:18:20.709Z,100819.27
2018-09-24T19:20:54.125Z,100821.08
2018-09-24T19:23:27.879Z,100827.84
2018-09-24T19:26:01.290Z,100820.17
2018-09-24T19:28:34.698Z,100824.59
2018-09-24T19:31:08.214Z,100826.89
2018-09-24T19:33:41.753Z,100815.43
2018-09-24T19:36:15.555Z,100823.32
2018-09-24T19:38:48.868Z,100838.22
2018-09-24T19:41:22.328Z,100838.17
2018-09-24T19:43:55.774Z,100839.72
2018-09-24T19:46:29.329Z,100845.88
2018-09-24T19:49:02.685Z,100851.12
2018-09-24T19:51:36.161Z,100857.73
2018-09-24T19:54:09.642Z,100858.64
2018-09-24T19:56:43.103Z,100856.95
2018-09-24T19:59:16.574Z,100858.22
2018-09-24T20:01:50.061Z,100863.44
2018-09-24T20:04:23.634Z,100870.60
2018-09-24T20:06:56.997Z,100870.30
2018-09-24T20:09:30.535Z,100871.23
2018-09-24T20:12:03.858Z,100873.56
2018-09-24T20:14:37.315Z,100886.27
2018-09-24T20:17:10.903Z,100888.97
2018-09-24T20:19:44.111Z,100894.30
2018-09-24T20:22:17.345Z,100884.61
2018-09-24T20:24:50.760Z,100891.98
2018-09-24T20:27:24.174Z,100895.13
2018-09-24T20:29:57.609Z,100896.44
2018-09-24T20:32:31.079Z,100897.87
2018-09-24T20:35:04.396Z,100902.06
2018-09-24T20:37:37.915Z,100899.36
2018-09-24T20:40:11.674Z,100905.42
2018-09-24T20:42:45.121Z,100914.72
2018-09-24T20:45:18.687Z,100919.08
2018-09-24T20:47:52.026Z,100920.65
2018-09-24T20:50:25.349Z,100930.23
2018-09-24T20:52:58.643Z,100929.41
2018-09-24T20:55:32.062Z,100929.03
2018-09-24T20:58:05.469Z,100940.76
2018-09-24T21:00:38.911Z,100940.62
2018-09-24T21:03:12.252Z,100951.20
2018-09-24T21:05:45.730Z,100961.40
2018-09-24T21:08:19.081Z,100958.31
2018-09-24T21:10:52.540Z,100966.68
2018-09-24T21:13:25.889Z,100973.70
2018-09-24T21:15:59.365Z,100968.03
2018-09-24T21:18:32.699Z,100977.16
2018-09-24T21:21:06.186Z,100982.34
2018-09-24T21:23:39.428Z,100989.77
2018-09-24T21:26:12.829Z,100988.53
2018-09-24T21:28:46.268Z,100986.94
2018-09-24T21:31:19.754Z,100992.29
2018-09-24T21:33:53.197Z,101000.25
2018-09-24T21:36:26.606Z,100996.17
2018-09-24T21:39:00.093Z,101006.79
2018-09-24T21:41:33.463Z,101006.92
2018-09-24T21:44:06.753Z,101012.72
2018-09-24T21:46:40.436Z,101021.98
2018-09-24T21:49:13.761Z,101023.37
2018-09-24T21:51:47.032Z,101024.29
2018-09-24T21:54:20.402Z,101026.98
2018-09-24T21:56:53.790Z,101029.23
2018-09-24T21:59:27.120Z,101041.47
2018-09-24T22:02:00.589Z,101040.61
2018-09-24T22:04:34.069Z,101042.35
2018-09-24T22:07:07.263Z,101048.05
2018-09-24T22:09:40.505Z,101050.30
2018-09-24T22:12:13.785Z,101068.13
2018-09-24T22:14:47.351Z,101069.41
2018-09-24T22:17:20.737Z,101084.23
2018-09-24T22:19:54.095Z,101088.64
2018-09-24T22:22:27.469Z,101088.66
2018-09-24T22:25:00.825Z,101087.38
2018-09-24T22:27:34.048Z,101094.80
2018-09-24T22:30:07.271Z,101095.23
2018-09-24T22:32:40.757Z,101108.34
2018-09-24T22:35:14.167Z,101105.73
2018-09-24T22:37:47.660Z,101110.53
2018-09-24T22:40:20.963Z,101104.02
2018-09-24T22:42:54.406Z,101107.09
2018-09-24T22:45:27.861Z,101105.38
2018-09-24T22:48:01.299Z,101109.28
2018-09-24T22:50:34.794Z,101114.06
2018-09-24T22:53:08.092Z,101114.50
2018-09-24T22:55:41.454Z,101114.09
2018-09-24T22:58:14.874Z,101121.48
2018-09-24T23:00:48.418Z,101121.47
2018-09-24T23:03:21.651Z,101118.02
2018-09-24T23:05:55.137Z,101128.42
2018-09-24T23:08:28.534Z,101125.37
2018-09-24T23:11:01.879Z,101124.08
2018-09-24T23:13:35.237Z,101127.98
2018-09-24T23:16:08.793Z,101128.84
2018-09-24T23:18:42.221Z,101129.29
2018-09-24T23:21:15.502Z,101126.68
2018-09-24T23:23:48.678Z,101131.02
2018-09-24T23:26:22.275Z,101134.95
2018-09-24T23:28:55.608Z,101146.23
2018-09-24T23:31:29.177Z,101146.66
2018-09-24T23:34:02.662Z,101153.59
2018-09-24T23:36:35.883Z,101154.91
2018-09-24T23:39:11.178Z,101158.38
2018-09-24T23:41:44.650Z,101151.86
2018-09-24T23:44:17.965Z,101155.30
2018-09-24T23:46:51.322Z,101163.58
2018-09-24T23:49:24.879Z,101172.68
2018-09-24T23:51:58.330Z,101167.03
2018-09-24T23:54:31.620Z,101177.45
2018-09-24T23:57:05.034Z,101172.63
2018-09-24T23:59:38.526Z,101175.67
